createdAt,value
2023-03-05T00:00:15.851Z,99187.20
2023-03-05T00:03:24.067Z,99180.46
2023-03-05T00:06:12.099Z,99175.24
2023-03-05T00:09:00.575Z,99176.94
2023-03-05T00:11:49.075Z,99178.10
2023-03-05T00:14:36.984Z,99166.06
2023-03-05T00:17:25.193Z,99171.08
2023-03-05T00:20:14.794Z,99176.50
2023-03-05T00:23:03.075Z,99190.39
2023-03-05T00:25:51.385Z,99186.05
2023-03-05T00:28:39.882Z,99182.10
2023-03-05T00:31:31.349Z,99181.66
2023-03-05T00:34:20.602Z,99174.63
2023-03-05T00:37:08.409Z,99168.67
2023-03-05T00:39:56.543Z,99164.44
2023-03-05T00:42:44.888Z,99156.60
2023-03-05T00:45:33.598Z,99150.73
2023-03-05T00:48:22.671Z,99146.72
2023-03-05T00:51:10.942Z,99146.80
2023-03-05T00:53:59.010Z,99144.45
2023-03-05T00:56:47.756Z,99135.84
2023-03-05T00:59:35.627Z,99132.65
2023-03-05T01:02:23.532Z,99124.44
2023-03-05T01:05:14.663Z,99119.17
2023-03-05T01:08:03.325Z,99117.38
2023-03-05T01:10:52.060Z,99113.52
2023-03-05T01:13:41.302Z,99112.92
2023-03-05T01:16:29.602Z,99110.78
2023-03-05T01:19:18.551Z,99105.34
2023-03-05T01:22:06.650Z,99100.45
2023-03-05T01:24:54.912Z,99096.90
2023-03-05T01:27:43.277Z,99094.63
2023-03-05T01:30:31.576Z,99086.06
2023-03-05T01:33:20.466Z,99078.87
2023-03-05T01:36:16.007Z,99069.11
2023-03-05T01:39:04.072Z,99066.25
2023-03-05T01:41:52.050Z,99059.41
2023-03-05T01:45:12.917Z,99058.94
2023-03-05T01:48:01.179Z,99051.73
2023-03-05T01:50:50.024Z,99047.24
2023-03-05T01:53:38.267Z,99047.45
2023-03-05T01:56:29.442Z,99042.74
2023-03-05T01:59:18.480Z,99045.52
2023-03-05T02:02:08.317Z,99037.86
2023-03-05T02:05:04.184Z,99040.67
2023-03-05T02:07:52.278Z,99041.05
2023-03-05T02:10:47.677Z,99033.47
2023-03-05T02:13:40.760Z,99031.42
2023-03-05T02:16:37.039Z,99026.56
2023-03-05T02:19:25.703Z,99020.02
2023-03-05T02:22:19.304Z,99018.48
2023-03-05T02:25:21.738Z,99013.68
2023-03-05T02:28:30.459Z,99011.96
2023-03-05T02:31:24.390Z,99012.15
2023-03-05T02:34:12.605Z,99009.34
2023-03-05T02:37:00.387Z,99006.02
2023-03-05T02:39:48.523Z,99000.33
2023-03-05T02:42:37.049Z,98996.76
2023-03-05T02:45:25.473Z,98993.31
2023-03-05T02:48:14.161Z,98991.73
2023-03-05T02:51:04.951Z,98987.86
2023-03-05T02:53:53.649Z,98980.48
2023-03-05T02:56:43.720Z,98973.73
2023-03-05T02:59:32.172Z,98970.20
2023-03-05T03:02:20.848Z,98970.73
2023-03-05T03:05:09.946Z,98971.29
2023-03-05T03:07:58.202Z,98970.31
2023-03-05T03:10:46.130Z,98968.94
2023-03-05T03:13:34.727Z,98977.19
2023-03-05T03:16:23.152Z,98984.30
2023-03-05T03:19:12.012Z,98988.48
2023-03-05T03:22:00.216Z,98991.96
2023-03-05T03:24:48.889Z,98996.55
2023-03-05T03:27:37.443Z,98996.38
2023-03-05T03:30:25.675Z,98985.48
2023-03-05T03:33:13.946Z,98973.02
2023-03-05T03:36:03.784Z,98966.75
2023-03-05T03:38:52.073Z,98969.84
2023-03-05T03:41:46.429Z,98967.81
2023-03-05T03:44:34.608Z,98963.23
2023-03-05T03:47:22.804Z,98957.88
2023-03-05T03:50:11.755Z,98953.59
2023-03-05T03:52:59.850Z,98952.06
2023-03-05T03:55:48.086Z,98936.52
2023-03-05T03:58:36.603Z,98944.64
2023-03-05T04:01:24.846Z,98938.84
2023-03-05T04:04:13.793Z,98939.12
2023-03-05T04:07:01.752Z,98938.77
2023-03-05T04:09:50.404Z,98944.21
2023-03-05T04:12:38.695Z,98942.04
2023-03-05T04:15:26.873Z,98943.44
2023-03-05T04:18:14.953Z,98945.02
2023-03-05T04:21:03.733Z,98935.46
2023-03-05T04:23:51.671Z,98931.23
2023-03-05T04:26:39.999Z,98926.33
2023-03-05T04:29:27.682Z,98918.85
2023-03-05T04:32:23.282Z,98920.42
2023-03-05T04:35:11.453Z,98915.68
2023-03-05T04:37:59.403Z,98913.06
2023-03-05T04:40:48.060Z,98912.77
2023-03-05T04:43:36.394Z,98908.77
2023-03-05T04:46:24.644Z,98905.75
2023-03-05T04:49:12.927Z,98902.53
2023-03-05T04:52:01.091Z,98900.88
2023-03-05T04:54:49.195Z,98892.25
2023-03-05T04:57:37.713Z,98896.17
2023-03-05T05:00:25.879Z,98895.13
2023-03-05T05:03:14.393Z,98896.53
2023-03-05T05:06:03.093Z,98894.45
2023-03-05T05:08:51.596Z,98894.06
2023-03-05T05:11:40.667Z,98893.69
2023-03-05T05:14:28.486Z,98896.70
2023-03-05T05:17:16.466Z,98893.29
2023-03-05T05:20:07.278Z,98897.25
2023-03-05T05:22:55.480Z,98892.24
2023-03-05T05:25:43.905Z,98893.92
2023-03-05T05:28:32.556Z,98888.00
2023-03-05T05:31:21.413Z,98889.86
2023-03-05T05:34:11.455Z,98888.48
2023-03-05T05:36:59.617Z,98886.42
2023-03-05T05:39:50.328Z,98882.83
2023-03-05T05:42:38.459Z,98888.96
2023-03-05T05:45:26.540Z,98883.96
2023-03-05T05:48:14.663Z,98885.92
2023-03-05T05:51:12.855Z,98883.20
2023-03-05T05:54:01.607Z,98885.86
2023-03-05T05:56:49.712Z,98886.06
2023-03-05T05:59:38.378Z,98883.64
2023-03-05T06:02:27.912Z,98872.18
2023-03-05T06:05:16.194Z,98880.14
2023-03-05T06:08:05.165Z,98874.04
2023-03-05T06:10:56.446Z,98873.45
2023-03-05T06:13:45.226Z,98869.67
2023-03-05T06:16:34.101Z,98870.73
2023-03-05T06:19:22.258Z,98870.49
2023-03-05T06:22:10.558Z,98871.40
2023-03-05T06:24:58.735Z,98870.36
2023-03-05T06:27:47.094Z,98869.90
2023-03-05T06:30:35.120Z,98866.79
2023-03-05T06:33:23.334Z,98865.52
2023-03-05T06:36:16.833Z,98870.87
2023-03-05T06:39:05.626Z,98864.77
2023-03-05T06:41:53.757Z,98866.94
2023-03-05T06:44:42.057Z,98867.14
2023-03-05T06:47:30.555Z,98866.89
2023-03-05T06:50:18.530Z,98865.55
2023-03-05T06:53:06.593Z,98861.79
2023-03-05T06:55:55.235Z,98855.52
2023-03-05T06:58:49.082Z,98854.98
2023-03-05T07:01:37.611Z,98852.33
2023-03-05T07:04:26.592Z,98850.21
2023-03-05T07:07:15.081Z,98847.60
2023-03-05T07:10:04.781Z,98850.33
2023-03-05T07:12:53.052Z,98845.38
2023-03-05T07:15:42.164Z,98842.39
2023-03-05T07:18:30.273Z,98839.58
2023-03-05T07:21:23.957Z,98834.09
2023-03-05T07:24:12.780Z,98824.33
2023-03-05T07:27:00.995Z,98817.92
2023-03-05T07:29:49.069Z,98812.55
2023-03-05T07:32:37.533Z,98805.26
2023-03-05T07:35:25.636Z,98800.14
2023-03-05T07:38:14.120Z,98794.38
2023-03-05T07:41:09.040Z,98801.17
2023-03-05T07:43:57.462Z,98792.81
2023-03-05T07:46:45.946Z,98785.44
2023-03-05T07:49:35.403Z,98783.66
2023-03-05T07:52:23.639Z,98780.75
2023-03-05T07:55:12.738Z,98777.60
2023-03-05T07:58:01.470Z,98775.44
2023-03-05T08:00:49.821Z,98777.03
2023-03-05T08:03:38.031Z,98774.48
2023-03-05T08:06:26.150Z,98775.80
2023-03-05T08:09:14.998Z,98777.84
2023-03-05T08:12:04.589Z,98775.11
2023-03-05T08:14:52.801Z,98777.12
2023-03-05T08:17:40.889Z,98772.77
2023-03-05T08:20:29.129Z,98774.73
2023-03-05T08:23:17.493Z,98772.27
2023-03-05T08:26:23.127Z,98776.76
2023-03-05T08:29:11.498Z,98768.08
2023-03-05T08:31:59.580Z,98766.94
2023-03-05T08:34:47.799Z,98766.89
2023-03-05T08:37:36.937Z,98762.84
2023-03-05T08:40:25.263Z,98765.16
2023-03-05T08:43:13.781Z,98767.24
2023-03-05T08:46:03.736Z,98769.55
2023-03-05T08:48:52.289Z,98776.33
2023-03-05T08:51:41.745Z,98779.35
2023-03-05T08:54:29.995Z,98786.00
2023-03-05T08:57:18.467Z,98788.84
2023-03-05T09:00:12.780Z,98785.92
2023-03-05T09:03:01.030Z,98802.77
2023-03-05T09:05:51.514Z,98796.99
2023-03-05T09:08:41.152Z,98793.20
2023-03-05T09:11:29.048Z,98788.36
2023-03-05T09:14:17.074Z,98785.61
2023-03-05T09:17:06.208Z,98785.15
2023-03-05T09:19:56.923Z,98781.70
2023-03-05T09:22:44.945Z,98772.42
2023-03-05T09:25:33.325Z,98776.06
2023-03-05T09:28:21.288Z,98772.56
2023-03-05T09:31:11.456Z,98770.84
2023-03-05T09:33:59.989Z,98766.34
2023-03-05T09:36:48.691Z,98769.08
2023-03-05T09:39:37.542Z,98769.45
2023-03-05T09:42:33.072Z,98769.86
2023-03-05T09:46:01.718Z,98773.14
2023-03-05T09:49:13.481Z,98772.67
2023-03-05T09:52:31.434Z,98780.52
2023-03-05T09:55:44.883Z,98772.44
2023-03-05T09:58:49.860Z,98776.96
2023-03-05T10:01:44.875Z,98767.70
2023-03-05T10:04:57.922Z,98759.23
2023-03-05T10:07:55.520Z,98762.20
2023-03-05T10:10:54.180Z,98757.52
2023-03-05T10:13:45.529Z,98755.63
2023-03-05T10:17:05.337Z,98746.20
2023-03-05T10:20:17.862Z,98745.95
2023-03-05T10:23:08.631Z,98738.77
2023-03-05T10:26:27.003Z,98738.27
2023-03-05T10:29:43.219Z,98736.77
2023-03-05T10:33:08.362Z,98737.52
2023-03-05T10:36:02.533Z,98730.39
2023-03-05T10:39:05.249Z,98736.36
2023-03-05T10:42:20.313Z,98737.80
2023-03-05T10:45:28.515Z,98741.82
2023-03-05T10:48:41.232Z,98739.98
2023-03-05T10:51:49.928Z,98736.64
2023-03-05T10:54:41.905Z,98735.91
2023-03-05T10:57:32.364Z,98735.69
2023-03-05T11:00:26.656Z,98742.12
2023-03-05T11:03:14.713Z,98744.44
2023-03-05T11:06:03.578Z,98747.64
2023-03-05T11:08:51.411Z,98741.02
2023-03-05T11:11:39.602Z,98730.23
2023-03-05T11:14:31.458Z,98728.84
2023-03-05T11:17:32.777Z,98724.50
2023-03-05T11:20:27.403Z,98729.70
2023-03-05T11:23:25.014Z,98735.42
2023-03-05T11:26:13.244Z,98735.29
2023-03-05T11:29:05.010Z,98739.35
2023-03-05T11:31:54.312Z,98739.96
2023-03-05T11:34:42.961Z,98738.92
2023-03-05T11:37:33.309Z,98741.61
2023-03-05T11:40:25.293Z,98736.73
2023-03-05T11:43:20.677Z,98735.33
2023-03-05T11:46:12.074Z,98725.52
2023-03-05T11:49:00.743Z,98719.25
2023-03-05T11:51:51.528Z,98713.50
2023-03-05T11:55:03.389Z,98711.80
2023-03-05T11:58:07.777Z,98705.61
2023-03-05T12:00:57.026Z,98710.44
2023-03-05T12:03:46.076Z,98712.16
2023-03-05T12:07:04.400Z,98702.33
2023-03-05T12:10:28.285Z,98704.79
2023-03-05T12:13:22.163Z,98698.78
2023-03-05T12:16:37.611Z,98701.36
2023-03-05T12:19:55.980Z,98696.98
2023-03-05T12:22:43.584Z,98701.34
2023-03-05T12:25:51.703Z,98698.80
2023-03-05T12:28:41.765Z,98699.29
2023-03-05T12:31:38.408Z,98697.89
2023-03-05T12:34:40.590Z,98691.46
2023-03-05T12:37:27.630Z,98691.38
2023-03-05T12:40:33.933Z,98684.61
2023-03-05T12:43:31.369Z,98690.00
2023-03-05T12:46:32.441Z,98688.24
2023-03-05T12:49:22.897Z,98694.35
2023-03-05T12:52:24.386Z,98689.79
2023-03-05T12:55:35.243Z,98686.08
2023-03-05T12:58:45.435Z,98693.63
2023-03-05T13:01:48.131Z,98691.73
2023-03-05T13:04:41.377Z,98692.23
2023-03-05T13:07:31.914Z,98695.32
2023-03-05T13:10:29.752Z,98684.39
2023-03-05T13:13:16.405Z,98692.05
2023-03-05T13:16:04.740Z,98692.56
2023-03-05T13:18:53.590Z,98691.71
2023-03-05T13:21:40.508Z,98690.05
2023-03-05T13:24:29.384Z,98691.91
2023-03-05T13:27:31.737Z,98688.35
2023-03-05T13:30:28.285Z,98690.60
2023-03-05T13:33:22.362Z,98690.91
2023-03-05T13:36:15.605Z,98695.63
2023-03-05T13:39:05.127Z,98697.40
2023-03-05T13:42:16.788Z,98696.52
2023-03-05T13:45:29.914Z,98686.71
2023-03-05T13:48:19.582Z,98688.34
2023-03-05T13:51:08.067Z,98683.50
2023-03-05T13:53:55.146Z,98682.52
2023-03-05T13:57:00.512Z,98684.09
2023-03-05T14:00:48.467Z,98689.02
2023-03-05T14:03:35.463Z,98687.18
2023-03-05T14:06:27.674Z,98685.20
2023-03-05T14:09:31.859Z,98683.20
2023-03-05T14:12:42.068Z,98679.74
2023-03-05T14:15:33.007Z,98677.84
2023-03-05T14:18:21.186Z,98679.23
2023-03-05T14:21:12.776Z,98683.13
2023-03-05T14:24:12.160Z,98685.42
2023-03-05T14:27:08.156Z,98682.84
2023-03-05T14:29:55.170Z,98684.98
2023-03-05T14:32:44.998Z,98683.93
2023-03-05T14:35:34.966Z,98683.13
2023-03-05T14:38:34.298Z,98679.30
2023-03-05T14:41:42.063Z,98683.16
2023-03-05T14:44:28.738Z,98679.27
2023-03-05T14:47:15.643Z,98676.55
2023-03-05T14:50:03.169Z,98677.31
2023-03-05T14:52:55.502Z,98681.62
2023-03-05T14:55:45.229Z,98676.58
2023-03-05T14:58:34.889Z,98681.73
2023-03-05T15:01:21.761Z,98679.91
2023-03-05T15:04:09.012Z,98679.90
2023-03-05T15:06:55.695Z,98682.65
2023-03-05T15:09:42.569Z,98677.61
2023-03-05T15:12:29.739Z,98680.29
2023-03-05T15:15:17.884Z,98678.55
2023-03-05T15:18:04.775Z,98679.89
2023-03-05T15:20:52.501Z,98679.95
2023-03-05T15:23:39.611Z,98681.14
2023-03-05T15:26:26.595Z,98679.16
2023-03-05T15:29:13.800Z,98677.84
2023-03-05T15:32:24.288Z,98681.40
2023-03-05T15:35:11.041Z,98688.21
2023-03-05T15:37:58.101Z,98683.55
2023-03-05T15:40:46.943Z,98690.86
2023-03-05T15:43:33.454Z,98692.55
2023-03-05T15:46:20.331Z,98692.09
2023-03-05T15:49:07.347Z,98691.19
2023-03-05T15:51:56.484Z,98685.34
2023-03-05T15:54:45.796Z,98688.71
2023-03-05T15:57:36.737Z,98688.39
2023-03-05T16:00:28.937Z,98691.35
2023-03-05T16:03:16.107Z,98695.16
2023-03-05T16:06:05.068Z,98690.88
2023-03-05T16:08:59.506Z,98694.50
2023-03-05T16:11:48.680Z,98695.46
2023-03-05T16:14:38.641Z,98694.99
2023-03-05T16:17:25.594Z,98695.05
2023-03-05T16:20:14.218Z,98695.33
2023-03-05T16:23:03.902Z,98691.96
2023-03-05T16:25:51.442Z,98693.36
2023-03-05T16:28:38.456Z,98691.16
2023-03-05T16:31:33.459Z,98693.49
2023-03-05T16:34:22.299Z,98693.68
2023-03-05T16:37:09.353Z,98692.97
2023-03-05T16:39:58.868Z,98696.59
2023-03-05T16:42:46.914Z,98694.64
2023-03-05T16:45:33.921Z,98694.95
2023-03-05T16:48:20.788Z,98695.10
2023-03-05T16:51:09.211Z,98690.70
2023-03-05T16:53:56.401Z,98694.27
2023-03-05T16:56:43.328Z,98695.24
2023-03-05T16:59:30.391Z,98695.14
2023-03-05T17:02:17.524Z,98693.99
2023-03-05T17:05:05.213Z,98694.25
2023-03-05T17:07:53.035Z,98699.21
2023-03-05T17:10:43.116Z,98696.46
2023-03-05T17:13:29.469Z,98693.87
2023-03-05T17:16:18.714Z,98692.60
2023-03-05T17:19:05.439Z,98697.45
2023-03-05T17:21:52.502Z,98690.55
2023-03-05T17:24:42.230Z,98694.39
2023-03-05T17:27:29.351Z,98694.64
2023-03-05T17:30:16.677Z,98691.91
2023-03-05T17:33:04.898Z,98687.47
2023-03-05T17:35:51.899Z,98688.47
2023-03-05T17:38:38.997Z,98686.98
2023-03-05T17:41:26.296Z,98685.89
2023-03-05T17:44:13.737Z,98687.35
2023-03-05T17:47:00.754Z,98684.52
2023-03-05T17:49:48.612Z,98683.14
2023-03-05T17:52:40.749Z,98688.42
2023-03-05T17:55:27.794Z,98683.85
2023-03-05T17:58:16.105Z,98682.76
2023-03-05T18:01:05.519Z,98683.21
2023-03-05T18:03:53.978Z,98681.94
2023-03-05T18:06:41.216Z,98681.34
2023-03-05T18:09:28.535Z,98680.56
2023-03-05T18:12:16.732Z,98679.16
2023-03-05T18:15:08.153Z,98680.40
2023-03-05T18:17:55.526Z,98678.87
2023-03-05T18:20:43.430Z,98676.17
2023-03-05T18:23:30.139Z,98674.99
2023-03-05T18:26:17.666Z,98671.23
2023-03-05T18:29:04.582Z,98669.57
2023-03-05T18:31:51.602Z,98666.63
2023-03-05T18:34:38.843Z,98670.11
2023-03-05T18:37:26.038Z,98665.64
2023-03-05T18:40:20.284Z,98666.56
2023-03-05T18:43:09.263Z,98661.42
2023-03-05T18:45:56.986Z,98664.73
2023-03-05T18:48:47.580Z,98662.85
2023-03-05T18:51:35.791Z,98661.66
2023-03-05T18:54:22.536Z,98659.76
2023-03-05T18:57:09.279Z,98662.15
2023-03-05T18:59:58.216Z,98661.45
2023-03-05T19:02:45.346Z,98662.33
2023-03-05T19:05:33.537Z,98660.30
2023-03-05T19:08:21.784Z,98662.77
2023-03-05T19:11:20.506Z,98665.42
2023-03-05T19:14:07.549Z,98662.22
2023-03-05T19:16:54.239Z,98660.73
2023-03-05T19:19:44.828Z,98658.73
2023-03-05T19:22:33.676Z,98658.83
2023-03-05T19:25:20.408Z,98661.72
2023-03-05T19:28:07.416Z,98658.98
2023-03-05T19:30:54.482Z,98658.16
2023-03-05T19:33:42.231Z,98655.31
2023-03-05T19:36:33.784Z,98653.29
2023-03-05T19:39:20.369Z,98647.63
2023-03-05T19:42:08.279Z,98651.77
2023-03-05T19:44:55.050Z,98645.19
2023-03-05T19:47:42.270Z,98648.77
2023-03-05T19:50:29.239Z,98649.61
2023-03-05T19:53:16.337Z,98649.59
2023-03-05T19:56:05.806Z,98652.96
2023-03-05T19:58:52.902Z,98649.71
2023-03-05T20:01:39.813Z,98649.67
2023-03-05T20:04:27.485Z,98648.30
2023-03-05T20:07:14.813Z,98646.73
2023-03-05T20:10:01.731Z,98647.27
2023-03-05T20:12:50.506Z,98644.33
2023-03-05T20:15:37.409Z,98642.14
2023-03-05T20:18:25.258Z,98642.52
2023-03-05T20:21:20.731Z,98641.56
2023-03-05T20:24:12.997Z,98646.64
2023-03-05T20:27:00.144Z,98645.16
2023-03-05T20:29:47.198Z,98642.81
2023-03-05T20:32:34.587Z,98641.54
2023-03-05T20:35:22.241Z,98641.80
2023-03-05T20:38:25.775Z,98639.89
2023-03-05T20:41:16.949Z,98637.95
2023-03-05T20:44:04.660Z,98637.77
2023-03-05T20:47:01.956Z,98636.04
2023-03-05T20:49:53.231Z,98631.54
2023-03-05T20:52:40.687Z,98628.95
2023-03-05T20:55:28.216Z,98629.08
2023-03-05T20:58:15.402Z,98629.70
2023-03-05T21:01:02.806Z,98624.27
2023-03-05T21:03:49.565Z,98624.38
2023-03-05T21:06:37.161Z,98621.58
2023-03-05T21:09:24.260Z,98619.37
2023-03-05T21:12:11.516Z,98620.95
2023-03-05T21:14:59.462Z,98619.04
2023-03-05T21:17:46.659Z,98619.70
2023-03-05T21:20:35.711Z,98619.87
2023-03-05T21:23:22.843Z,98622.77
2023-03-05T21:26:10.013Z,98618.77
2023-03-05T21:28:56.796Z,98612.31
2023-03-05T21:31:43.912Z,98613.95
2023-03-05T21:34:31.057Z,98609.13
2023-03-05T21:37:17.814Z,98609.44
2023-03-05T21:40:05.155Z,98606.08
2023-03-05T21:42:52.818Z,98605.36
2023-03-05T21:45:40.743Z,98605.14
2023-03-05T21:48:27.991Z,98605.79
2023-03-05T21:51:16.348Z,98602.48
2023-03-05T21:54:03.847Z,98600.98
2023-03-05T21:56:50.939Z,98599.84
2023-03-05T21:59:42.007Z,98593.75
2023-03-05T22:02:29.094Z,98593.00
2023-03-05T22:05:16.250Z,98586.02
2023-03-05T22:08:03.826Z,98585.08
2023-03-05T22:10:51.233Z,98579.09
2023-03-05T22:13:39.873Z,98579.34
2023-03-05T22:16:27.849Z,98573.99
2023-03-05T22:19:14.658Z,98572.27
2023-03-05T22:22:01.664Z,98566.55
2023-03-05T22:24:48.234Z,98564.12
2023-03-05T22:27:35.702Z,98561.64
2023-03-05T22:30:23.722Z,98557.92
2023-03-05T22:33:10.683Z,98559.30
2023-03-05T22:35:58.249Z,98557.64
2023-03-05T22:38:45.783Z,98554.34
2023-03-05T22:41:32.665Z,98554.36
2023-03-05T22:44:19.360Z,98552.17
2023-03-05T22:47:06.165Z,98553.27
2023-03-05T22:49:53.717Z,98549.05
2023-03-05T22:52:40.390Z,98548.84
2023-03-05T22:55:27.376Z,98551.91
2023-03-05T22:58:14.260Z,98553.53
2023-03-05T23:01:01.296Z,98544.61
2023-03-05T23:03:54.247Z,98545.89
2023-03-05T23:06:41.312Z,98547.08
2023-03-05T23:09:27.685Z,98549.45
2023-03-05T23:12:14.370Z,98546.59
2023-03-05T23:15:05.598Z,98548.89
2023-03-05T23:17:53.312Z,98549.70
2023-03-05T23:20:41.205Z,98544.14
2023-03-05T23:23:28.083Z,98547.31
2023-03-05T23:26:14.920Z,98550.29
2023-03-05T23:29:01.779Z,98543.89
2023-03-05T23:31:48.364Z,98546.52
2023-03-05T23:34:34.826Z,98543.49
2023-03-05T23:37:21.882Z,98541.91
2023-03-05T23:40:13.991Z,98540.66
2023-03-05T23:43:00.773Z,98538.11
2023-03-05T23:45:48.897Z,98539.02
2023-03-05T23:48:35.483Z,98536.48
2023-03-05T23:51:22.488Z,98533.73
2023-03-05T23:54:09.330Z,98533.71
2023-03-05T23:56:55.927Z,98534.02
2023-03-05T23:59:42.581Z,98531.48
